sensor_id;sensor_type;location;lat;lon;timestamp;pressure;altitude;pressure_sealevel;temperature;humidity
65534;BME280;53640;55.838;37.184;2024-02-28T00:02:03;100147.47;;;-5.62;53.28
65534;BME280;53640;55.838;37.184;2024-02-28T00:04:31;100191.34;;;-5.32;54.39
65534;BME280;53640;55.838;37.184;2024-02-28T00:06:58;100195.31;;;-5.25;54.70
65534;BME280;53640;55.838;37.184;2024-02-28T00:09:25;100189.84;;;-5.36;54.48
65534;BME280;53640;55.838;37.184;2024-02-28T00:11:52;100123.19;;;-5.67;54.85
65534;BME280;53640;55.838;37.184;2024-02-28T00:14:18;100204.91;;;-5.24;55.05
65534;BME280;53640;55.838;37.184;2024-02-28T00:16:46;100196.44;;;-5.29;55.07
65534;BME280;53640;55.838;37.184;2024-02-28T00:19:13;100113.38;;;-5.79;55.01
65534;BME280;53640;55.838;37.184;2024-02-28T00:21:40;100205.28;;;-5.30;54.89
65534;BME280;53640;55.838;37.184;2024-02-28T00:24:07;100215.94;;;-5.17;55.22
65534;BME280;53640;55.838;37.184;2024-02-28T00:26:33;100220.91;;;-5.27;54.56
65534;BME280;53640;55.838;37.184;2024-02-28T00:29:01;100161.59;;;-5.63;54.69
65534;BME280;53640;55.838;37.184;2024-02-28T00:31:28;100206.16;;;-5.30;55.24
65534;BME280;53640;55.838;37.184;2024-02-28T00:33:55;100210.19;;;-5.24;55.36
65534;BME280;53640;55.838;37.184;2024-02-28T00:36:21;100169.28;;;-5.45;55.24
65534;BME280;53640;55.838;37.184;2024-02-28T00:38:47;100180.03;;;-5.34;55.42
65534;BME280;53640;55.838;37.184;2024-02-28T00:41:14;100115.81;;;-5.76;55.20
65534;BME280;53640;55.838;37.184;2024-02-28T00:43:40;100192.47;;;-5.36;55.34
65534;BME280;53640;55.838;37.184;2024-02-28T00:46:07;100129.94;;;-5.77;54.63
65534;BME280;53640;55.838;37.184;2024-02-28T00:48:38;100120.91;;;-5.73;55.25
65534;BME280;53640;55.838;37.184;2024-02-28T00:51:05;100123.53;;;-5.73;55.17
65534;BME280;53640;55.838;37.184;2024-02-28T00:53:32;100159.34;;;-5.55;55.13
65534;BME280;53640;55.838;37.184;2024-02-28T00:56:00;100153.69;;;-5.48;55.37
65534;BME280;53640;55.838;37.184;2024-02-28T00:58:26;100176.56;;;-5.49;54.93
65534;BME280;53640;55.838;37.184;2024-02-28T01:00:55;100126.94;;;-5.71;55.44
65534;BME280;53640;55.838;37.184;2024-02-28T01:03:22;100139.84;;;-5.66;55.64
65534;BME280;53640;55.838;37.184;2024-02-28T01:05:49;100171.56;;;-5.54;55.36
65534;BME280;53640;55.838;37.184;2024-02-28T01:08:17;100139.38;;;-5.73;55.26
65534;BME280;53640;55.838;37.184;2024-02-28T01:10:44;100174.13;;;-5.52;55.77
65534;BME280;53640;55.838;37.184;2024-02-28T01:13:11;100162.06;;;-5.56;55.50
65534;BME280;53640;55.838;37.184;2024-02-28T01:15:40;100129.94;;;-5.77;55.74
65534;BME280;53640;55.838;37.184;2024-02-28T01:18:09;100160.84;;;-5.65;55.74
65534;BME280;53640;55.838;37.184;2024-02-28T01:20:36;100187.38;;;-5.54;55.75
65534;BME280;53640;55.838;37.184;2024-02-28T01:23:04;100168.06;;;-5.68;55.79
65534;BME280;53640;55.838;37.184;2024-02-28T01:25:30;100173.84;;;-5.62;55.81
65534;BME280;53640;55.838;37.184;2024-02-28T01:27:57;100147.47;;;-5.76;56.02
65534;BME280;53640;55.838;37.184;2024-02-28T01:30:27;100120.88;;;-6.02;55.57
65534;BME280;53640;55.838;37.184;2024-02-28T01:32:53;100174.00;;;-5.65;55.76
65534;BME280;53640;55.838;37.184;2024-02-28T01:35:20;100167.22;;;-5.69;55.85
65534;BME280;53640;55.838;37.184;2024-02-28T01:37:47;100169.59;;;-5.64;55.99
65534;BME280;53640;55.838;37.184;2024-02-28T01:40:14;100182.09;;;-5.68;55.53
65534;BME280;53640;55.838;37.184;2024-02-28T01:42:40;100183.81;;;-5.67;55.76
65534;BME280;53640;55.838;37.184;2024-02-28T01:45:10;100135.22;;;-5.91;55.65
65534;BME280;53640;55.838;37.184;2024-02-28T01:47:41;100133.72;;;-5.81;56.27
65534;BME280;53640;55.838;37.184;2024-02-28T01:50:10;100122.81;;;-5.89;56.15
65534;BME280;53640;55.838;37.184;2024-02-28T01:52:40;100061.03;;;-6.28;56.52
65534;BME280;53640;55.838;37.184;2024-02-28T01:55:08;100145.19;;;-5.68;56.38
65534;BME280;53640;55.838;37.184;2024-02-28T01:57:37;100078.34;;;-6.10;56.21
65534;BME280;53640;55.838;37.184;2024-02-28T02:00:06;100117.53;;;-5.89;56.35
65534;BME280;53640;55.838;37.184;2024-02-28T02:02:34;100147.09;;;-5.84;56.32
65534;BME280;53640;55.838;37.184;2024-02-28T02:05:02;100119.13;;;-6.01;56.24
65534;BME280;53640;55.838;37.184;2024-02-28T02:07:31;100088.78;;;-6.23;56.05
65534;BME280;53640;55.838;37.184;2024-02-28T02:09:57;100098.41;;;-6.07;56.05
65534;BME280;53640;55.838;37.184;2024-02-28T02:12:24;100120.03;;;-6.02;56.37
65534;BME280;53640;55.838;37.184;2024-02-28T02:14:50;100102.28;;;-6.13;56.11
65534;BME280;53640;55.838;37.184;2024-02-28T02:17:18;100049.63;;;-6.43;56.53
65534;BME280;53640;55.838;37.184;2024-02-28T02:19:45;100154.69;;;-5.80;56.53
65534;BME280;53640;55.838;37.184;2024-02-28T02:22:13;100137.00;;;-5.92;56.39
65534;BME280;53640;55.838;37.184;2024-02-28T02:24:41;100069.66;;;-6.40;56.64
65534;BME280;53640;55.838;37.184;2024-02-28T02:27:09;100138.50;;;-6.02;56.51
65534;BME280;53640;55.838;37.184;2024-02-28T02:29:35;100152.72;;;-5.90;56.82
65534;BME280;53640;55.838;37.184;2024-02-28T02:32:02;100142.28;;;-5.92;57.17
65534;BME280;53640;55.838;37.184;2024-02-28T02:34:29;100071.84;;;-6.33;57.25
65534;BME280;53640;55.838;37.184;2024-02-28T02:36:55;100145.47;;;-5.87;57.03
65534;BME280;53640;55.838;37.184;2024-02-28T02:39:22;100097.56;;;-6.08;57.04
65534;BME280;53640;55.838;37.184;2024-02-28T02:41:48;100111.28;;;-6.03;57.05
65534;BME280;53640;55.838;37.184;2024-02-28T02:44:14;100128.63;;;-5.99;57.11
65534;BME280;53640;55.838;37.184;2024-02-28T02:46:41;100157.44;;;-5.81;57.13
65534;BME280;53640;55.838;37.184;2024-02-28T02:49:08;100142.09;;;-5.89;56.97
65534;BME280;53640;55.838;37.184;2024-02-28T02:51:35;100114.78;;;-6.02;57.38
65534;BME280;53640;55.838;37.184;2024-02-28T02:54:01;100107.25;;;-6.08;57.11
65534;BME280;53640;55.838;37.184;2024-02-28T02:56:27;100154.91;;;-5.83;57.14
65534;BME280;53640;55.838;37.184;2024-02-28T02:58:54;100130.34;;;-5.97;56.88
65534;BME280;53640;55.838;37.184;2024-02-28T03:01:34;100135.38;;;-5.94;56.92
65534;BME280;53640;55.838;37.184;2024-02-28T03:04:02;100071.78;;;-6.31;57.12
65534;BME280;53640;55.838;37.184;2024-02-28T03:06:29;100027.97;;;-6.62;57.22
65534;BME280;53640;55.838;37.184;2024-02-28T03:08:56;100116.28;;;-6.12;57.25
65534;BME280;53640;55.838;37.184;2024-02-28T03:11:22;100130.59;;;-6.02;57.32
65534;BME280;53640;55.838;37.184;2024-02-28T03:13:49;100131.25;;;-5.99;57.38
65534;BME280;53640;55.838;37.184;2024-02-28T03:16:15;100081.34;;;-6.30;57.37
65534;BME280;53640;55.838;37.184;2024-02-28T03:18:41;100087.78;;;-6.20;57.74
65534;BME280;53640;55.838;37.184;2024-02-28T03:21:09;100118.19;;;-6.00;57.60
65534;BME280;53640;55.838;37.184;2024-02-28T03:23:37;100132.41;;;-5.88;57.53
65534;BME280;53640;55.838;37.184;2024-02-28T03:26:03;100107.09;;;-6.05;57.42
65534;BME280;53640;55.838;37.184;2024-02-28T03:28:30;100130.78;;;-5.91;57.55
65534;BME280;53640;55.838;37.184;2024-02-28T03:30:56;100078.44;;;-6.26;57.47
65534;BME280;53640;55.838;37.184;2024-02-28T03:33:23;100148.19;;;-6.03;57.25
65534;BME280;53640;55.838;37.184;2024-02-28T03:35:51;100087.28;;;-6.27;57.39
65534;BME280;53640;55.838;37.184;2024-02-28T03:38:17;100066.28;;;-6.42;57.70
65534;BME280;53640;55.838;37.184;2024-02-28T03:40:45;100127.28;;;-6.06;57.76
65534;BME280;53640;55.838;37.184;2024-02-28T03:43:12;100087.38;;;-6.28;57.52
65534;BME280;53640;55.838;37.184;2024-02-28T03:45:39;100139.94;;;-5.96;57.90
65534;BME280;53640;55.838;37.184;2024-02-28T03:48:06;100007.66;;;-6.75;57.89
65534;BME280;53640;55.838;37.184;2024-02-28T03:50:33;99995.78;;;-6.82;57.97
65534;BME280;53640;55.838;37.184;2024-02-28T03:52:59;100072.03;;;-6.36;57.95
65534;BME280;53640;55.838;37.184;2024-02-28T03:55:26;100141.31;;;-5.91;58.00
65534;BME280;53640;55.838;37.184;2024-02-28T03:57:53;100116.75;;;-6.06;58.23
65534;BME280;53640;55.838;37.184;2024-02-28T04:00:19;100106.78;;;-6.15;58.04
65534;BME280;53640;55.838;37.184;2024-02-28T04:02:46;100122.03;;;-6.06;58.06
65534;BME280;53640;55.838;37.184;2024-02-28T04:05:14;100054.03;;;-6.43;57.88
65534;BME280;53640;55.838;37.184;2024-02-28T04:07:41;100085.84;;;-6.32;57.94
65534;BME280;53640;55.838;37.184;2024-02-28T04:10:13;100138.13;;;-5.96;57.87
65534;BME280;53640;55.838;37.184;2024-02-28T04:12:45;100122.41;;;-6.12;58.06
65534;BME280;53640;55.838;37.184;2024-02-28T04:15:13;100127.94;;;-6.02;58.29
65534;BME280;53640;55.838;37.184;2024-02-28T04:18:03;100141.06;;;-6.01;58.18
65534;BME280;53640;55.838;37.184;2024-02-28T04:20:29;99958.69;;;-7.22;57.95
65534;BME280;53640;55.838;37.184;2024-02-28T04:22:57;100052.44;;;-6.60;57.79
65534;BME280;53640;55.838;37.184;2024-02-28T04:28:21;100129.75;;;-6.03;58.30
65534;BME280;53640;55.838;37.184;2024-02-28T04:30:48;99890.72;;;-7.43;58.13
65534;BME280;53640;55.838;37.184;2024-02-28T04:33:15;99969.94;;;-7.20;57.83
65534;BME280;53640;55.838;37.184;2024-02-28T04:35:42;100143.56;;;-6.13;57.90
65534;BME280;53640;55.838;37.184;2024-02-28T04:38:08;100022.56;;;-6.89;57.95
65534;BME280;53640;55.838;37.184;2024-02-28T04:40:35;100152.91;;;-6.08;58.27
65534;BME280;53640;55.838;37.184;2024-02-28T04:43:01;100045.34;;;-6.74;58.20
65534;BME280;53640;55.838;37.184;2024-02-28T04:45:32;100088.94;;;-6.40;58.41
65534;BME280;53640;55.838;37.184;2024-02-28T04:48:11;100073.44;;;-6.44;58.52
65534;BME280;53640;55.838;37.184;2024-02-28T04:50:38;100010.72;;;-6.82;58.75
65534;BME280;53640;55.838;37.184;2024-02-28T04:53:06;100029.72;;;-6.77;58.25
65534;BME280;53640;55.838;37.184;2024-02-28T04:55:33;99963.50;;;-7.14;58.40
65534;BME280;53640;55.838;37.184;2024-02-28T04:58:01;99990.50;;;-6.96;58.82
65534;BME280;53640;55.838;37.184;2024-02-28T05:00:28;100165.78;;;-6.03;58.04
65534;BME280;53640;55.838;37.184;2024-02-28T05:02:54;100153.63;;;-6.06;58.36
65534;BME280;53640;55.838;37.184;2024-02-28T05:05:21;100138.97;;;-5.95;58.80
65534;BME280;53640;55.838;37.184;2024-02-28T05:07:48;100119.88;;;-5.99;58.54
65534;BME280;53640;55.838;37.184;2024-02-28T05:10:23;100067.06;;;-6.26;58.81
65534;BME280;53640;55.838;37.184;2024-02-28T05:12:53;100102.75;;;-5.92;58.45
65534;BME280;53640;55.838;37.184;2024-02-28T05:15:21;100105.25;;;-5.90;57.47
65534;BME280;53640;55.838;37.184;2024-02-28T05:17:51;100129.75;;;-5.60;58.23
65534;BME280;53640;55.838;37.184;2024-02-28T05:20:18;100070.25;;;-5.92;57.74
65534;BME280;53640;55.838;37.184;2024-02-28T05:22:45;100156.03;;;-5.44;58.08
65534;BME280;53640;55.838;37.184;2024-02-28T05:25:14;100087.94;;;-5.66;57.95
65534;BME280;53640;55.838;37.184;2024-02-28T05:27:42;100101.69;;;-5.61;58.20
65534;BME280;53640;55.838;37.184;2024-02-28T05:30:12;100102.63;;;-5.47;57.56
65534;BME280;53640;55.838;37.184;2024-02-28T05:32:39;100124.84;;;-5.37;57.75
65534;BME280;53640;55.838;37.184;2024-02-28T05:35:06;100084.53;;;-5.54;57.73
65534;BME280;53640;55.838;37.184;2024-02-28T05:37:33;100134.66;;;-5.12;56.53
65534;BME280;53640;55.838;37.184;2024-02-28T05:40:00;100143.59;;;-5.01;55.19
65534;BME280;53640;55.838;37.184;2024-02-28T05:42:30;100098.25;;;-5.34;56.31
65534;BME280;53640;55.838;37.184;2024-02-28T05:44:59;100083.16;;;-5.32;56.39
65534;BME280;53640;55.838;37.184;2024-02-28T05:47:26;100142.50;;;-4.84;56.57
65534;BME280;53640;55.838;37.184;2024-02-28T05:49:54;100125.06;;;-4.86;55.24
65534;BME280;53640;55.838;37.184;2024-02-28T05:52:23;100123.38;;;-4.87;54.88
65534;BME280;53640;55.838;37.184;2024-02-28T05:54:49;100098.06;;;-5.04;55.67
65534;BME280;53640;55.838;37.184;2024-02-28T05:57:16;100155.56;;;-4.55;56.27
65534;BME280;53640;55.838;37.184;2024-02-28T05:59:43;100133.31;;;-4.78;54.70
65534;BME280;53640;55.838;37.184;2024-02-28T06:02:10;100141.44;;;-4.54;54.24
65534;BME280;53640;55.838;37.184;2024-02-28T06:04:37;100121.31;;;-4.69;55.12
65534;BME280;53640;55.838;37.184;2024-02-28T06:07:05;100119.47;;;-4.55;55.58
65534;BME280;53640;55.838;37.184;2024-02-28T06:09:34;100107.94;;;-4.54;55.83
65534;BME280;53640;55.838;37.184;2024-02-28T06:12:03;100101.69;;;-4.53;56.22
65534;BME280;53640;55.838;37.184;2024-02-28T06:14:30;100127.28;;;-4.40;54.53
65534;BME280;53640;55.838;37.184;2024-02-28T06:16:56;100159.69;;;-4.24;54.78
65534;BME280;53640;55.838;37.184;2024-02-28T06:19:23;100041.53;;;-4.87;54.95
65534;BME280;53640;55.838;37.184;2024-02-28T06:21:50;100143.19;;;-4.15;54.67
65534;BME280;53640;55.838;37.184;2024-02-28T06:24:18;100101.75;;;-4.40;53.54
65534;BME280;53640;55.838;37.184;2024-02-28T06:26:48;100123.22;;;-4.19;53.34
65534;BME280;53640;55.838;37.184;2024-02-28T06:29:20;100117.72;;;-4.16;52.96
65534;BME280;53640;55.838;37.184;2024-02-28T06:31:51;100128.00;;;-3.98;52.82
65534;BME280;53640;55.838;37.184;2024-02-28T06:34:18;100092.75;;;-3.99;54.17
65534;BME280;53640;55.838;37.184;2024-02-28T06:36:46;100150.78;;;-3.46;53.67
65534;BME280;53640;55.838;37.184;2024-02-28T06:39:12;100139.91;;;-3.42;50.90
65534;BME280;53640;55.838;37.184;2024-02-28T06:41:39;100089.13;;;-3.60;51.00
65534;BME280;53640;55.838;37.184;2024-02-28T06:44:06;100122.28;;;-3.30;53.48
65534;BME280;53640;55.838;37.184;2024-02-28T06:46:35;100081.56;;;-3.40;53.46
65534;BME280;53640;55.838;37.184;2024-02-28T06:49:03;100009.88;;;-3.74;52.46
65534;BME280;53640;55.838;37.184;2024-02-28T06:51:31;100112.13;;;-2.99;51.59
65534;BME280;53640;55.838;37.184;2024-02-28T06:53:57;100116.75;;;-2.90;52.65
65534;BME280;53640;55.838;37.184;2024-02-28T06:56:23;100150.94;;;-2.63;51.37
65534;BME280;53640;55.838;37.184;2024-02-28T06:58:52;100095.81;;;-2.82;52.28
65534;BME280;53640;55.838;37.184;2024-02-28T07:01:19;100120.38;;;-2.56;51.14
65534;BME280;53640;55.838;37.184;2024-02-28T07:03:50;100147.34;;;-2.27;50.87
65534;BME280;53640;55.838;37.184;2024-02-28T07:06:17;100112.38;;;-2.43;51.86
65534;BME280;53640;55.838;37.184;2024-02-28T07:08:43;100111.00;;;-2.49;49.66
65534;BME280;53640;55.838;37.184;2024-02-28T07:11:15;100122.03;;;-2.31;48.53
65534;BME280;53640;55.838;37.184;2024-02-28T07:13:41;100081.63;;;-2.46;51.13
65534;BME280;53640;55.838;37.184;2024-02-28T07:16:13;100107.38;;;-2.13;50.71
65534;BME280;53640;55.838;37.184;2024-02-28T07:19:07;100149.06;;;-1.68;51.63
65534;BME280;53640;55.838;37.184;2024-02-28T07:21:35;100103.78;;;-1.89;51.19
65534;BME280;53640;55.838;37.184;2024-02-28T07:24:05;100127.81;;;-1.57;53.12
65534;BME280;53640;55.838;37.184;2024-02-28T07:26:53;100150.13;;;-1.26;52.15
65534;BME280;53640;55.838;37.184;2024-02-28T07:29:32;100095.00;;;-1.56;50.01
65534;BME280;53640;55.838;37.184;2024-02-28T07:32:00;100065.19;;;-1.71;50.24
65534;BME280;53640;55.838;37.184;2024-02-28T07:34:32;100020.09;;;-1.93;49.33
65534;BME280;53640;55.838;37.184;2024-02-28T07:37:32;100083.50;;;-1.34;52.03
65534;BME280;53640;55.838;37.184;2024-02-28T07:39:59;100144.03;;;-0.94;49.11
65534;BME280;53640;55.838;37.184;2024-02-28T07:42:26;100017.44;;;-1.71;50.61
65534;BME280;53640;55.838;37.184;2024-02-28T07:44:54;100074.56;;;-1.33;49.21
65534;BME280;53640;55.838;37.184;2024-02-28T07:47:28;100131.69;;;-0.84;47.99
65534;BME280;53640;55.838;37.184;2024-02-28T07:50:15;100023.19;;;-1.54;49.73
65534;BME280;53640;55.838;37.184;2024-02-28T07:52:43;100065.84;;;-1.13;50.10
65534;BME280;53640;55.838;37.184;2024-02-28T07:55:10;100046.19;;;-0.89;51.07
65534;BME280;53640;55.838;37.184;2024-02-28T07:57:36;100161.72;;;-0.29;48.97
65534;BME280;53640;55.838;37.184;2024-02-28T08:00:03;100089.81;;;-0.59;48.75
65534;BME280;53640;55.838;37.184;2024-02-28T08:02:39;100141.13;;;-0.27;44.63
65534;BME280;53640;55.838;37.184;2024-02-28T08:05:05;100156.59;;;-0.21;45.75
65534;BME280;53640;55.838;37.184;2024-02-28T08:07:34;100141.59;;;-0.22;48.70
65534;BME280;53640;55.838;37.184;2024-02-28T08:10:00;100089.03;;;-0.29;47.27
65534;BME280;53640;55.838;37.184;2024-02-28T08:12:27;100145.56;;;0.05;46.59
65534;BME280;53640;55.838;37.184;2024-02-28T08:14:56;100126.03;;;-0.05;48.55
65534;BME280;53640;55.838;37.184;2024-02-28T08:17:24;100074.47;;;-0.04;48.77
65534;BME280;53640;55.838;37.184;2024-02-28T08:19:51;100144.50;;;0.38;45.57
65534;BME280;53640;55.838;37.184;2024-02-28T08:22:22;100116.22;;;0.47;47.67
65534;BME280;53640;55.838;37.184;2024-02-28T08:24:54;100104.25;;;0.72;46.23
65534;BME280;53640;55.838;37.184;2024-02-28T08:27:20;100097.25;;;0.90;46.23
65534;BME280;53640;55.838;37.184;2024-02-28T08:29:49;100054.63;;;0.80;43.95
65534;BME280;53640;55.838;37.184;2024-02-28T08:32:18;100126.13;;;1.45;44.94
65534;BME280;53640;55.838;37.184;2024-02-28T08:34:46;100133.84;;;1.67;48.23
65534;BME280;53640;55.838;37.184;2024-02-28T08:37:13;100079.09;;;1.53;46.46
65534;BME280;53640;55.838;37.184;2024-02-28T08:39:48;100047.22;;;1.42;42.26
65534;BME280;53640;55.838;37.184;2024-02-28T08:42:16;100084.94;;;1.86;44.34
65534;BME280;53640;55.838;37.184;2024-02-28T08:44:42;100075.31;;;2.22;45.60
65534;BME280;53640;55.838;37.184;2024-02-28T08:47:11;100104.91;;;2.39;43.71
65534;BME280;53640;55.838;37.184;2024-02-28T08:49:41;100132.28;;;2.50;43.23
65534;BME280;53640;55.838;37.184;2024-02-28T08:52:07;100082.44;;;2.59;44.32
65534;BME280;53640;55.838;37.184;2024-02-28T08:54:34;100087.09;;;2.85;45.76
65534;BME280;53640;55.838;37.184;2024-02-28T08:57:01;100071.81;;;2.95;44.76
65534;BME280;53640;55.838;37.184;2024-02-28T08:59:29;100095.63;;;3.34;43.51
65534;BME280;53640;55.838;37.184;2024-02-28T09:01:55;100062.59;;;3.25;43.92
65534;BME280;53640;55.838;37.184;2024-02-28T09:04:22;100072.63;;;3.41;43.21
65534;BME280;53640;55.838;37.184;2024-02-28T09:06:48;100071.97;;;3.83;44.17
65534;BME280;53640;55.838;37.184;2024-02-28T09:09:14;100063.53;;;3.95;40.14
65534;BME280;53640;55.838;37.184;2024-02-28T09:11:42;100085.88;;;4.38;42.27
65534;BME280;53640;55.838;37.184;2024-02-28T09:14:11;100089.13;;;4.58;43.34
65534;BME280;53640;55.838;37.184;2024-02-28T09:16:38;100087.72;;;4.80;44.09
65534;BME280;53640;55.838;37.184;2024-02-28T09:19:04;100059.72;;;4.75;40.79
65534;BME280;53640;55.838;37.184;2024-02-28T09:21:32;100068.31;;;4.86;42.28
65534;BME280;53640;55.838;37.184;2024-02-28T09:23:58;100045.97;;;4.78;36.50
65534;BME280;53640;55.838;37.184;2024-02-28T09:26:25;100074.03;;;5.00;38.49
65534;BME280;53640;55.838;37.184;2024-02-28T09:28:51;100067.53;;;5.18;38.81
65534;BME280;53640;55.838;37.184;2024-02-28T09:31:18;100083.72;;;5.51;43.61
65534;BME280;53640;55.838;37.184;2024-02-28T09:33:46;100035.69;;;5.81;46.33
65534;BME280;53640;55.838;37.184;2024-02-28T09:36:14;100042.22;;;5.78;41.84
65534;BME280;53640;55.838;37.184;2024-02-28T09:38:41;100091.72;;;6.25;37.69
65534;BME280;53640;55.838;37.184;2024-02-28T09:41:14;100074.91;;;6.23;35.25
65534;BME280;53640;55.838;37.184;2024-02-28T09:43:42;100057.81;;;5.83;37.59
65534;BME280;53640;55.838;37.184;2024-02-28T09:46:09;100069.56;;;6.06;34.64
65534;BME280;53640;55.838;37.184;2024-02-28T09:48:41;100058.81;;;6.06;36.14
65534;BME280;53640;55.838;37.184;2024-02-28T09:51:09;100096.44;;;6.70;39.38
65534;BME280;53640;55.838;37.184;2024-02-28T09:53:40;100082.59;;;6.73;37.51
65534;BME280;53640;55.838;37.184;2024-02-28T09:56:08;100091.72;;;7.11;35.92
65534;BME280;53640;55.838;37.184;2024-02-28T09:58:35;100069.59;;;7.24;39.56
65534;BME280;53640;55.838;37.184;2024-02-28T10:01:04;100083.09;;;7.16;37.70
65534;BME280;53640;55.838;37.184;2024-02-28T10:03:36;100042.38;;;7.42;37.44
65534;BME280;53640;55.838;37.184;2024-02-28T10:06:04;100094.09;;;7.98;39.60
65534;BME280;53640;55.838;37.184;2024-02-28T10:08:30;100087.75;;;8.29;39.50
65534;BME280;53640;55.838;37.184;2024-02-28T10:10:58;100044.22;;;8.32;38.06
65534;BME280;53640;55.838;37.184;2024-02-28T10:13:25;100052.06;;;8.78;39.85
65534;BME280;53640;55.838;37.184;2024-02-28T10:15:51;100074.84;;;9.26;39.51
65534;BME280;53640;55.838;37.184;2024-02-28T10:18:20;100074.00;;;9.47;36.30
65534;BME280;53640;55.838;37.184;2024-02-28T10:20:47;100049.81;;;9.39;36.41
65534;BME280;53640;55.838;37.184;2024-02-28T10:23:16;100070.31;;;9.70;32.43
65534;BME280;53640;55.838;37.184;2024-02-28T10:28:10;100072.16;;;9.91;38.04
65534;BME280;53640;55.838;37.184;2024-02-28T10:30:43;100044.53;;;9.74;33.28
65534;BME280;53640;55.838;37.184;2024-02-28T10:33:11;100053.91;;;9.99;34.58
65534;BME280;53640;55.838;37.184;2024-02-28T10:35:41;100018.34;;;10.02;36.91
65534;BME280;53640;55.838;37.184;2024-02-28T10:38:10;100044.22;;;10.46;40.30
65534;BME280;53640;55.838;37.184;2024-02-28T10:40:38;100024.06;;;10.55;40.04
65534;BME280;53640;55.838;37.184;2024-02-28T10:43:07;100065.03;;;10.81;34.71
65534;BME280;53640;55.838;37.184;2024-02-28T10:45:35;100049.94;;;10.65;36.51
65534;BME280;53640;55.838;37.184;2024-02-28T10:48:03;99993.97;;;10.37;36.30
65534;BME280;53640;55.838;37.184;2024-02-28T10:50:32;100029.97;;;10.66;30.79
65534;BME280;53640;55.838;37.184;2024-02-28T10:53:04;100038.88;;;11.14;39.28
65534;BME280;53640;55.838;37.184;2024-02-28T10:55:39;100048.09;;;11.33;41.71
65534;BME280;53640;55.838;37.184;2024-02-28T10:58:09;100030.13;;;11.19;35.84
65534;BME280;53640;55.838;37.184;2024-02-28T11:00:38;99934.41;;;10.78;35.96
65534;BME280;53640;55.838;37.184;2024-02-28T11:03:05;100011.81;;;11.34;29.32
65534;BME280;53640;55.838;37.184;2024-02-28T11:05:40;100024.75;;;11.65;35.47
65534;BME280;53640;55.838;37.184;2024-02-28T11:08:32;100038.97;;;11.94;35.94
65534;BME280;53640;55.838;37.184;2024-02-28T11:11:07;100049.00;;;12.00;35.26
65534;BME280;53640;55.838;37.184;2024-02-28T11:13:37;100052.72;;;12.06;40.86
65534;BME280;53640;55.838;37.184;2024-02-28T11:16:10;99964.06;;;11.53;38.61
65534;BME280;53640;55.838;37.184;2024-02-28T11:18:49;100008.91;;;11.95;29.60
65534;BME280;53640;55.838;37.184;2024-02-28T11:21:16;100031.03;;;12.06;29.18
65534;BME280;53640;55.838;37.184;2024-02-28T11:23:47;100049.34;;;12.30;31.84
65534;BME280;53640;55.838;37.184;2024-02-28T11:26:15;100055.16;;;12.40;34.73
65534;BME280;53640;55.838;37.184;2024-02-28T11:28:43;100049.75;;;12.34;29.86
65534;BME280;53640;55.838;37.184;2024-02-28T11:31:09;100051.00;;;12.38;31.77
65534;BME280;53640;55.838;37.184;2024-02-28T11:33:36;99987.09;;;12.35;30.86
65534;BME280;53640;55.838;37.184;2024-02-28T11:36:04;100053.47;;;12.53;32.65
65534;BME280;53640;55.838;37.184;2024-02-28T11:38:39;100001.25;;;12.44;30.62
65534;BME280;53640;55.838;37.184;2024-02-28T11:41:30;99993.09;;;12.57;34.57
65534;BME280;53640;55.838;37.184;2024-02-28T11:44:21;100025.84;;;12.76;32.56
65534;BME280;53640;55.838;37.184;2024-02-28T11:46:48;99875.38;;;11.87;30.24
65534;BME280;53640;55.838;37.184;2024-02-28T11:49:17;99906.25;;;11.72;27.99
65534;BME280;53640;55.838;37.184;2024-02-28T11:52:13;100012.44;;;12.81;37.42
65534;BME280;53640;55.838;37.184;2024-02-28T11:54:42;99878.50;;;11.90;32.30
65534;BME280;53640;55.838;37.184;2024-02-28T11:57:12;99942.34;;;11.93;29.55
65534;BME280;53640;55.838;37.184;2024-02-28T11:59:45;99968.66;;;11.79;29.20
65534;BME280;53640;55.838;37.184;2024-02-28T12:02:13;99916.53;;;11.37;29.83
65534;BME280;53640;55.838;37.184;2024-02-28T12:04:41;99948.41;;;11.15;28.65
65534;BME280;53640;55.838;37.184;2024-02-28T12:11:14;99918.41;;;11.23;34.76
65534;BME280;53640;55.838;37.184;2024-02-28T12:13:42;100041.88;;;11.99;30.65
65534;BME280;53640;55.838;37.184;2024-02-28T12:16:08;99929.44;;;11.48;30.44
65534;BME280;53640;55.838;37.184;2024-02-28T12:18:40;99895.44;;;11.39;31.03
65534;BME280;53640;55.838;37.184;2024-02-28T12:21:14;99891.03;;;11.65;33.08
65534;BME280;53640;55.838;37.184;2024-02-28T12:23:46;100006.56;;;12.19;29.35
65534;BME280;53640;55.838;37.184;2024-02-28T12:26:16;99953.81;;;11.62;30.51
65534;BME280;53640;55.838;37.184;2024-02-28T12:28:45;99870.22;;;11.39;29.82
65534;BME280;53640;55.838;37.184;2024-02-28T12:31:12;99867.94;;;11.42;35.00
65534;BME280;53640;55.838;37.184;2024-02-28T12:33:42;99986.69;;;12.38;35.10
65534;BME280;53640;55.838;37.184;2024-02-28T12:36:09;99993.19;;;12.31;31.62
65534;BME280;53640;55.838;37.184;2024-02-28T12:38:37;99997.06;;;12.48;36.61
65534;BME280;53640;55.838;37.184;2024-02-28T12:41:04;99910.00;;;11.91;34.09
65534;BME280;53640;55.838;37.184;2024-02-28T12:43:35;99972.47;;;12.36;31.96
65534;BME280;53640;55.838;37.184;2024-02-28T12:46:03;100008.75;;;12.48;31.48
65534;BME280;53640;55.838;37.184;2024-02-28T12:48:30;99977.91;;;12.30;34.63
65534;BME280;53640;55.838;37.184;2024-02-28T12:50:59;100003.06;;;11.98;29.95
65534;BME280;53640;55.838;37.184;2024-02-28T12:53:30;99993.66;;;12.01;28.50
65534;BME280;53640;55.838;37.184;2024-02-28T12:55:59;99982.19;;;11.92;30.77
65534;BME280;53640;55.838;37.184;2024-02-28T12:58:25;99961.34;;;11.66;35.52
65534;BME280;53640;55.838;37.184;2024-02-28T13:03:48;99979.88;;;11.69;36.46